A- A+

nearest Lechfeld Air Base airportChetek Municipal Southworth airporthln airportCapitan Fuentes Martinez airportSavannah Hardin County airportMajeed Bin Abdulaziz airport

Airport information, from map to hotels via aeronautical information. And the aeronautical weather for the pilots with current weather and short-term forecasts with METAR (METeorological Aerodrome Report, observation message of meteorological conditions for aviation) and TAF (Terminal Aerodrome Forecast: short-term forecast message of meteorological conditions for aviation ). And other resources such as VAC (Visual Approach Chart) to prepare flights.

Rajkot airport at Rajkot (India)

Rajkot airport is located near Rajkot, with Rajkot at 1mi, Shahpur at 11mi, Paddhari at 14mi, Wankaner at 23mi, Gondal at 24mi, Tankara at 25mi, Kalavad at 26mi, Chotila at 27mi, Dhrol at 29mi, Than at 31mi, Jasdan at 33mi, Morbi at 35mi,

→ See also Northernmost airports in India and Southernmost airports in India

→ See also airports in India

Hotels in Rajkot airport

Booking.com

aerial view of Rajkot airport

Airport code

Elevation : 134 m = 440ft

→ See also Highest airports in India and Lowest airports in India

Runways

→ See also Airports with Longest runways in India

Where to go from Rajkot airport VARK RAJ

Buy a plane trip

weather : overcast at Rajkot

ciel couvert
81°F

wind 11mph
gusting to 19mph

Aviation weather for Rajkot airport VARK RAJ

METAR for Rajkot airport VARK RAJ

VARK 051100Z 0512/0521 02009KT 6000 NSC<br> BECMG 0514/0516 02005KT 5000 HZ

Decoded METAR for Rajkot airport VARK RAJ

METAR issued by VARK on Friday, April 5, 2024 at 11:00 UTC, Warning : this METAR is out of date, issued 8 days and 194 hours and -11469 minutes ago.

visibility is = .

The temperature is 512°C = 954°F, dew point is 521°C = 970°F . This correspond to 107% relative humidity.

Sky clear.

02009KT, 6000, NSC (No Significant Clouds) = no clouds below 5000 ft and no TCU (tower CUmulus) or presence of cumulonimbus 'cumulonimbus)7LT, mist 7GT,

Becoming 0514/0516 02005KT 5000 haze

TAF for Rajkot airport VARK RAJ

VARK 051100Z 0512/0521 02009KT 6000 NSC
BECMG 0514/0516 02005KT 5000 HZ

Decoded TAF for Rajkot airport VARK RAJ

TAF issued by VARK on Friday, April 5, 2024 at 11:00 UTC Warning : this TAF is out of date, issued 8 days and 2 hours and 51 minutes. weather forecast for 9 hours, weather forecast updated every 3 hours.

from Friday, April 5, 2024 à 12:00 heure TU to Friday, April 5, 2024 à 14:00 heure UTC

0512/0521 02009KT 6000 NSC

NSC

wind 9kt = 17km/h, direction is 20°

Visibility is 6km = 4mi.

becoming from Friday, April 5, 2024 à 16:00 heure TU to Friday, April 5, 2024 à 21:00 heure UTC

BECMG 0514/0516 02005KT 5000 HZ

wind 5kt = 9km/h, direction is 20°

Visibility is 5km = 3mi.

haze

Around Rajkot airport at Rajkot (India)

near

nearest airports to Rajkot airport at Rajkot (India)

→ See also Former airports in India

Data sources